LIRF

Leonardo da Vinci–Fiumicino Airport

Rome, Italy
TAF LIRF 191100Z 1912/2018 15008KT 9999 SCT030 TEMPO 1912/1915 SHRA TEMPO 2006/2012 TSRA BECMG 2012/2014 03008KT
Issued Valid From Valid To
Jan-19 @ 11:00 UTC
(6 hours ago)
Jan-19 @ 12:00 UTC
(5 hours ago)
Jan-20 @ 18:00 UTC
(-1 days ago)
Jan-19 @ 12:00 to Jan-20 @ 12:00
TAF LIRF 191100Z 1912/2018 15008KT 9999 SCT030
Wind Visibility Clouds
150° at 8 knots 10,000+ meters
  • Scattered at 3,000' AGL
Expired Click to View Jan-19 @ 12:00 to Jan-19 @ 15:00
TEMPO 1912/1915 SHRA
Conditions
  • Rain
Temporary Jan-20 @ 06:00 to Jan-20 @ 12:00
TEMPO 2006/2012 TSRA
Conditions
  • Thunderstorm
  • Rain
Becoming Jan-20 @ 12:00 to Jan-20 @ 18:00
BECMG 2012/2014 03008KT
Wind Visibility Clouds
30° at 8 knots 10,000+ meters
  • Scattered at 3,000' AGL
TAF LIRF 191100Z 1912/2018 15008KT 9999 SCT030 TEMPO 1912/1915 SHRA TEMPO 2006/2012 TSRA BECMG 2012/2014 03008KT
Issued Jan-19 @ 11:00 UTC
(6 hours ago)
Valid From Jan-19 @ 12:00 UTC
(5 hours ago)
Valid To Jan-20 @ 18:00 UTC
(-1 days ago)
Jan-19 @ 12:00 - Jan-20 @ 12:00
Wind Visibility
150° at 8 knots 10,000+ meters
Clouds
  • Scattered at 3,000' AGL
Jan-19 @ 12:00 - Jan-19 @ 15:00
Conditions
  • Rain
Temporary Jan-20 @ 06:00 - Jan-20 @ 12:00
Conditions
  • Thunderstorm
  • Rain
Becoming Jan-20 @ 12:00 - Jan-20 @ 18:00
Wind Visibility
30° at 8 knots 10,000+ meters
Clouds
  • Scattered at 3,000' AGL